Time;durP1;ratioP1;P1;durP2;ratioP2;P2;SDS_P1;SDS_P2;PMS_P1;PMS_P2;Temp;Humidity;BMP_temperature;BMP_pressure;BME280_temperature;BME280_humidity;BME280_pressure;Samples;Min_cycle;Max_cycle;Signal;HPM_P1;HPM_P2
2023/03/12 00:00:54;;;;;;;17.20;9.43;;;;;;;;;;5058431;28;20217;-81
2023/03/12 00:03:20;;;;;;;13.80;9.10;;;;;;;;;;5052296;28;20838;-84
2023/03/12 00:05:47;;;;;;;16.93;8.10;;;;;;;;;;5021765;28;20629;-79
2023/03/12 00:08:13;;;;;;;11.47;8.23;;;;;;;;;;5049801;28;20436;-79
2023/03/12 00:10:40;;;;;;;12.03;8.53;;;;;;;;;;5064131;28;20196;-78
2023/03/12 00:13:06;;;;;;;12.68;8.15;;;;;;;;;;5050145;28;20411;-78
2023/03/12 00:15:35;;;;;;;10.20;7.07;;;;;;;;;;5039934;28;20205;-77
2023/03/12 00:18:01;;;;;;;10.73;6.60;;;;;;;;;;5045911;28;20593;-79
2023/03/12 00:20:27;;;;;;;9.47;6.07;;;;;;;;;;5029152;28;20178;-79
2023/03/12 00:22:54;;;;;;;9.60;5.70;;;;;;;;;;5051400;28;20261;-78
2023/03/12 00:25:20;;;;;;;9.87;5.93;;;;;;;;;;5047143;28;20194;-79
2023/03/12 00:27:46;;;;;;;8.60;5.40;;;;;;;;;;5050983;28;20441;-79
2023/03/12 00:30:12;;;;;;;9.20;5.83;;;;;;;;;;5046799;28;20182;-79
2023/03/12 00:32:38;;;;;;;10.07;5.07;;;;;;;;;;5051080;28;20210;-78
2023/03/12 00:35:05;;;;;;;10.60;6.60;;;;;;;;;;5045598;28;20433;-79
2023/03/12 00:37:34;;;;;;;10.93;6.33;;;;;;;;;;5032094;28;20255;-79
2023/03/12 00:40:00;;;;;;;8.53;5.97;;;;;;;;;;5050127;28;20315;-78
2023/03/12 00:42:27;;;;;;;12.80;7.30;;;;;;;;;;5032711;28;20213;-79
2023/03/12 00:44:53;;;;;;;12.73;7.27;;;;;;;;;;5050529;28;20268;-77
2023/03/12 00:47:19;;;;;;;14.30;8.77;;;;;;;;;;5051056;28;20207;-79
2023/03/12 00:49:46;;;;;;;13.20;8.53;;;;;;;;;;5062018;28;20178;-80
2023/03/12 00:52:13;;;;;;;11.90;8.73;;;;;;;;;;5015701;28;20316;-79
2023/03/12 00:54:40;;;;;;;12.70;8.37;;;;;;;;;;5049755;28;20204;-78
2023/03/12 00:57:07;;;;;;;13.10;9.10;;;;;;;;;;5051314;28;20240;-79
2023/03/12 00:59:39;;;;;;;15.03;10.73;;;;;;;;;;5042994;28;20186;-78
2023/03/12 01:02:06;;;;;;;12.73;8.87;;;;;;;;;;5039635;28;20202;-78
2023/03/12 01:04:32;;;;;;;15.20;9.03;;;;;;;;;;5048641;28;20206;-80
2023/03/12 01:06:58;;;;;;;12.43;8.93;;;;;;;;;;5049920;28;20204;-80
2023/03/12 01:09:24;;;;;;;13.53;8.23;;;;;;;;;;5049232;28;20231;-78
2023/03/12 01:11:51;;;;;;;13.20;7.80;;;;;;;;;;5048309;28;20182;-78
2023/03/12 01:14:17;;;;;;;12.90;8.37;;;;;;;;;;5028817;28;20815;-77
2023/03/12 01:16:43;;;;;;;15.33;9.00;;;;;;;;;;5060930;28;20209;-79
2023/03/12 01:19:11;;;;;;;12.93;8.27;;;;;;;;;;5033399;28;20166;-79
2023/03/12 01:21:38;;;;;;;13.07;8.50;;;;;;;;;;5049570;28;20217;-78
2023/03/12 01:24:05;;;;;;;10.13;7.37;;;;;;;;;;5032160;28;20201;-79
2023/03/12 01:26:31;;;;;;;14.50;8.10;;;;;;;;;;5046680;28;20263;-79
2023/03/12 01:28:57;;;;;;;15.50;8.67;;;;;;;;;;5045210;28;20197;-79
2023/03/12 01:31:24;;;;;;;12.47;8.50;;;;;;;;;;5031317;28;20178;-79
2023/03/12 01:33:51;;;;;;;10.07;7.30;;;;;;;;;;5043700;28;20202;-78
2023/03/12 01:36:22;;;;;;;14.03;8.80;;;;;;;;;;5045342;28;20174;-78
2023/03/12 01:38:50;;;;;;;13.17;8.00;;;;;;;;;;5049278;28;20177;-78
2023/03/12 01:41:16;;;;;;;14.93;9.33;;;;;;;;;;5048835;28;20245;-79
2023/03/12 01:43:42;;;;;;;14.53;9.43;;;;;;;;;;5034679;28;20197;-78
2023/03/12 01:46:23;;;;;;;16.70;9.90;;;;;;;;;;5029437;28;20208;-76
2023/03/12 01:48:54;;;;;;;15.90;9.90;;;;;;;;;;5031046;28;20649;-79
2023/03/12 01:51:21;;;;;;;19.60;10.10;;;;;;;;;;5031182;28;20202;-79
2023/03/12 01:53:49;;;;;;;11.77;8.70;;;;;;;;;;5046894;28;20663;-79
2023/03/12 01:56:16;;;;;;;12.80;8.73;;;;;;;;;;5046327;28;20177;-79
2023/03/12 01:58:44;;;;;;;13.40;8.30;;;;;;;;;;5047635;28;20182;-78
2023/03/12 02:01:12;;;;;;;13.83;8.60;;;;;;;;;;5027033;28;20314;-78
2023/03/12 02:03:38;;;;;;;12.80;8.17;;;;;;;;;;5048959;28;20198;-79
2023/03/12 02:06:09;;;;;;;12.50;8.67;;;;;;;;;;5013480;28;20175;-79
2023/03/12 02:08:36;;;;;;;12.07;7.90;;;;;;;;;;5067122;28;20172;-79
2023/03/12 02:11:02;;;;;;;11.73;7.97;;;;;;;;;;5013574;28;20276;-80
2023/03/12 02:13:29;;;;;;;13.10;8.17;;;;;;;;;;5051455;28;20697;-80
2023/03/12 02:15:55;;;;;;;12.07;7.47;;;;;;;;;;5033440;28;20702;-80
2023/03/12 02:18:22;;;;;;;11.67;7.10;;;;;;;;;;5033876;28;20209;-80
2023/03/12 02:21:10;;;;;;;13.73;8.63;;;;;;;;;;5019679;28;20197;-80
2023/03/12 02:23:56;;;;;;;13.93;8.93;;;;;;;;;;5043159;28;20206;-80
2023/03/12 02:26:24;;;;;;;12.73;8.57;;;;;;;;;;5044859;28;20173;-80
2023/03/12 02:28:50;;;;;;;12.90;9.57;;;;;;;;;;5049621;28;20184;-80
2023/03/12 02:31:22;;;;;;;16.67;10.17;;;;;;;;;;5049501;28;20618;-80
2023/03/12 02:33:48;;;;;;;12.70;8.40;;;;;;;;;;5049409;28;20206;-80
2023/03/12 02:36:14;;;;;;;12.30;8.83;;;;;;;;;;5033826;28;20186;-80
2023/03/12 02:38:42;;;;;;;12.70;7.90;;;;;;;;;;5050366;28;20177;-80
2023/03/12 02:41:14;;;;;;;12.80;8.53;;;;;;;;;;5050915;28;20744;-80
2023/03/12 02:43:42;;;;;;;13.30;8.77;;;;;;;;;;5049688;28;20279;-80
2023/03/12 02:46:08;;;;;;;13.80;8.37;;;;;;;;;;5054210;28;20174;-80
2023/03/12 02:48:35;;;;;;;12.40;8.37;;;;;;;;;;5063619;28;20296;-80
2023/03/12 02:51:02;;;;;;;13.27;8.50;;;;;;;;;;5076516;28;20186;-80
2023/03/12 02:53:28;;;;;;;13.00;8.97;;;;;;;;;;5063089;28;20204;-79
2023/03/12 02:55:54;;;;;;;12.27;9.00;;;;;;;;;;5066200;28;20185;-79
2023/03/12 02:58:21;;;;;;;14.23;9.30;;;;;;;;;;5058103;28;20173;-80
2023/03/12 03:00:48;;;;;;;15.13;9.90;;;;;;;;;;5066709;28;20192;-80
2023/03/12 03:03:15;;;;;;;16.57;10.20;;;;;;;;;;5035462;28;20205;-80
2023/03/12 03:05:41;;;;;;;12.40;9.30;;;;;;;;;;5018198;28;20178;-80
2023/03/12 03:08:07;;;;;;;14.97;8.40;;;;;;;;;;5041504;28;20189;-80
2023/03/12 03:10:34;;;;;;;14.07;8.90;;;;;;;;;;5052579;28;20253;-80
2023/03/12 03:13:00;;;;;;;14.47;8.83;;;;;;;;;;5050589;28;20212;-79
2023/03/12 03:15:26;;;;;;;15.30;9.10;;;;;;;;;;5046979;28;20885;-80
2023/03/12 03:17:53;;;;;;;12.37;8.73;;;;;;;;;;5063933;28;20180;-80
2023/03/12 03:20:20;;;;;;;14.07;8.80;;;;;;;;;;5051221;28;20274;-80
2023/03/12 03:22:46;;;;;;;13.30;8.80;;;;;;;;;;5051710;28;20209;-80
2023/03/12 03:25:12;;;;;;;12.17;8.57;;;;;;;;;;5050969;28;20177;-80
2023/03/12 03:27:38;;;;;;;12.93;8.70;;;;;;;;;;5029075;28;20597;-80
2023/03/12 03:30:05;;;;;;;13.80;8.93;;;;;;;;;;5050094;28;20580;-80
2023/03/12 03:32:35;;;;;;;15.23;10.10;;;;;;;;;;5036378;28;20247;-80
2023/03/12 03:35:01;;;;;;;13.67;9.33;;;;;;;;;;5030766;28;20194;-80
2023/03/12 03:37:27;;;;;;;16.53;10.27;;;;;;;;;;5056501;28;20174;-80
2023/03/12 03:39:53;;;;;;;14.33;9.80;;;;;;;;;;5021710;28;20182;-79
2023/03/12 03:42:20;;;;;;;12.50;9.00;;;;;;;;;;5056701;28;20225;-80
2023/03/12 03:44:46;;;;;;;11.20;8.57;;;;;;;;;;5048016;28;20185;-79
2023/03/12 03:47:12;;;;;;;15.37;9.10;;;;;;;;;;5037986;28;20184;-80
2023/03/12 03:49:39;;;;;;;11.77;8.47;;;;;;;;;;5053659;28;20185;-80
2023/03/12 03:52:06;;;;;;;12.10;8.73;;;;;;;;;;5063953;28;20211;-80
2023/03/12 03:54:35;;;;;;;12.43;8.47;;;;;;;;;;5050694;28;20209;-80
2023/03/12 03:57:02;;;;;;;12.67;8.17;;;;;;;;;;5051812;28;20242;-80
2023/03/12 03:59:28;;;;;;;12.63;8.43;;;;;;;;;;5035252;28;20634;-80
2023/03/12 04:01:55;;;;;;;16.87;8.80;;;;;;;;;;5035225;28;20217;-80
2023/03/12 04:04:21;;;;;;;15.07;9.17;;;;;;;;;;5031307;28;20202;-80
2023/03/12 04:06:47;;;;;;;13.30;9.23;;;;;;;;;;5028049;28;20235;-80
2023/03/12 04:09:14;;;;;;;16.13;9.30;;;;;;;;;;5048898;28;20193;-80
2023/03/12 04:11:40;;;;;;;13.67;8.90;;;;;;;;;;5049573;28;20174;-79
2023/03/12 04:14:08;;;;;;;13.00;8.60;;;;;;;;;;5030622;28;20301;-80
2023/03/12 04:16:37;;;;;;;11.57;7.93;;;;;;;;;;5049081;28;20189;-80
2023/03/12 04:19:03;;;;;;;13.37;8.53;;;;;;;;;;5051315;28;20192;-80
2023/03/12 04:21:30;;;;;;;9.73;7.73;;;;;;;;;;5034741;28;20725;-80
2023/03/12 04:23:56;;;;;;;12.27;7.70;;;;;;;;;;5050617;28;20751;-80
2023/03/12 04:26:27;;;;;;;9.67;7.53;;;;;;;;;;5037157;28;20177;-80
2023/03/12 04:28:54;;;;;;;11.77;7.73;;;;;;;;;;5029361;28;20209;-80
2023/03/12 04:31:21;;;;;;;11.60;7.37;;;;;;;;;;5018500;28;20181;-80
2023/03/12 04:33:50;;;;;;;11.40;7.40;;;;;;;;;;5051127;28;20260;-80
2023/03/12 04:36:18;;;;;;;11.83;7.77;;;;;;;;;;5056866;28;20178;-80
2023/03/12 04:38:47;;;;;;;9.97;7.27;;;;;;;;;;5035025;28;20239;-80
2023/03/12 04:41:15;;;;;;;11.73;7.33;;;;;;;;;;5051699;28;20213;-80
2023/03/12 04:43:49;;;;;;;11.53;7.00;;;;;;;;;;5052091;28;20202;-80
2023/03/12 04:46:16;;;;;;;11.43;7.43;;;;;;;;;;5034439;28;20240;-80
2023/03/12 04:48:43;;;;;;;10.70;7.30;;;;;;;;;;5064126;28;20182;-80
2023/03/12 04:51:10;;;;;;;9.90;6.57;;;;;;;;;;5051298;28;20197;-80
2023/03/12 04:53:39;;;;;;;10.10;6.30;;;;;;;;;;5028870;28;20237;-80
2023/03/12 04:56:05;;;;;;;10.73;6.97;;;;;;;;;;5035080;28;20273;-80
2023/03/12 04:58:32;;;;;;;9.80;6.73;;;;;;;;;;5050585;28;20258;-80
2023/03/12 05:00:58;;;;;;;11.13;6.50;;;;;;;;;;5033825;28;20185;-80
2023/03/12 05:03:25;;;;;;;11.57;7.10;;;;;;;;;;5050990;28;20217;-80
2023/03/12 05:05:51;;;;;;;11.60;6.30;;;;;;;;;;5053719;28;20189;-80
2023/03/12 05:08:17;;;;;;;10.47;6.50;;;;;;;;;;5039330;28;20181;-80
2023/03/12 05:10:44;;;;;;;9.73;5.70;;;;;;;;;;5021817;28;20247;-80
2023/03/12 05:13:22;;;;;;;8.90;5.93;;;;;;;;;;5037328;28;21103;-80
2023/03/12 05:15:51;;;;;;;9.53;5.50;;;;;;;;;;5053096;28;20257;-80
2023/03/12 05:18:20;;;;;;;8.13;5.20;;;;;;;;;;5053457;28;20186;-80
2023/03/12 05:20:46;;;;;;;7.40;5.03;;;;;;;;;;5034357;28;20235;-80
2023/03/12 05:23:13;;;;;;;8.43;4.90;;;;;;;;;;5058562;28;20221;-80
2023/03/12 05:25:40;;;;;;;8.23;4.87;;;;;;;;;;5051867;28;20695;-80
2023/03/12 05:28:06;;;;;;;7.63;4.60;;;;;;;;;;5053719;28;20586;-80
2023/03/12 05:30:33;;;;;;;7.37;4.67;;;;;;;;;;5051789;28;20189;-80
2023/03/12 05:32:59;;;;;;;6.30;4.37;;;;;;;;;;5031965;28;20211;-79
2023/03/12 05:35:25;;;;;;;9.30;4.70;;;;;;;;;;5055828;28;20593;-80
2023/03/12 05:37:51;;;;;;;8.17;4.20;;;;;;;;;;5033466;28;20218;-79
2023/03/12 05:40:18;;;;;;;6.67;4.40;;;;;;;;;;5048476;28;20182;-79
2023/03/12 05:42:44;;;;;;;8.13;4.70;;;;;;;;;;5051291;28;20224;-80
2023/03/12 05:45:10;;;;;;;6.30;4.40;;;;;;;;;;5060260;28;20182;-80
2023/03/12 05:47:40;;;;;;;7.13;4.83;;;;;;;;;;5051602;28;20174;-79
2023/03/12 05:50:08;;;;;;;10.20;4.90;;;;;;;;;;5052361;28;20178;-80
2023/03/12 05:52:35;;;;;;;7.07;4.67;;;;;;;;;;5067254;28;20708;-80
2023/03/12 05:55:01;;;;;;;7.80;4.60;;;;;;;;;;5043277;28;20216;-80
2023/03/12 05:57:27;;;;;;;8.77;5.07;;;;;;;;;;5047028;28;20239;-80
2023/03/12 05:59:53;;;;;;;9.23;4.53;;;;;;;;;;5049278;28;20224;-79
2023/03/12 06:02:20;;;;;;;7.77;4.77;;;;;;;;;;5049843;28;20239;-80
2023/03/12 06:04:46;;;;;;;6.37;4.60;;;;;;;;;;5051419;28;20630;-80
2023/03/12 06:07:12;;;;;;;6.10;4.33;;;;;;;;;;5050489;28;20174;-80
2023/03/12 06:09:39;;;;;;;9.07;4.77;;;;;;;;;;5050833;28;20185;-80
2023/03/12 06:12:05;;;;;;;7.20;4.40;;;;;;;;;;5031394;28;20269;-80
2023/03/12 06:14:32;;;;;;;6.60;4.20;;;;;;;;;;5028453;28;20224;-80
2023/03/12 06:16:59;;;;;;;7.03;4.67;;;;;;;;;;5048338;28;20186;-80
2023/03/12 06:19:25;;;;;;;6.50;4.27;;;;;;;;;;5051239;28;20649;-80
2023/03/12 06:21:52;;;;;;;7.90;4.50;;;;;;;;;;5033142;28;20217;-80
2023/03/12 06:24:19;;;;;;;7.60;4.40;;;;;;;;;;5048512;28;20233;-80
2023/03/12 06:26:59;;;;;;;6.33;4.40;;;;;;;;;;5029607;28;20240;-80
2023/03/12 06:29:25;;;;;;;5.43;3.90;;;;;;;;;;5033762;28;20185;-80
2023/03/12 06:31:51;;;;;;;5.97;3.60;;;;;;;;;;5033619;28;20281;-79
2023/03/12 06:34:17;;;;;;;7.30;3.93;;;;;;;;;;5049286;28;20255;-79
2023/03/12 06:36:44;;;;;;;6.07;3.43;;;;;;;;;;5048861;28;20196;-80
2023/03/12 06:39:10;;;;;;;7.43;3.63;;;;;;;;;;5030912;28;20194;-80
2023/03/12 06:41:36;;;;;;;4.93;3.20;;;;;;;;;;5044846;28;20689;-79
2023/03/12 06:44:04;;;;;;;5.50;3.60;;;;;;;;;;5041597;28;20206;-80
2023/03/12 06:46:31;;;;;;;6.90;3.73;;;;;;;;;;5048703;28;20204;-80
2023/03/12 06:48:57;;;;;;;4.17;2.93;;;;;;;;;;5046769;28;20196;-80
2023/03/12 06:51:23;;;;;;;6.70;3.53;;;;;;;;;;5034279;28;20198;-80
2023/03/12 06:53:49;;;;;;;6.57;3.10;;;;;;;;;;5049624;28;20416;-80
2023/03/12 06:56:16;;;;;;;6.13;3.63;;;;;;;;;;5062244;28;20221;-80
2023/03/12 06:58:42;;;;;;;8.63;3.70;;;;;;;;;;5048116;28;20186;-79
2023/03/12 07:01:08;;;;;;;7.70;3.33;;;;;;;;;;5045798;28;20209;-80
2023/03/12 07:03:34;;;;;;;6.33;3.53;;;;;;;;;;5026589;28;20202;-80
2023/03/12 07:06:00;;;;;;;6.13;3.80;;;;;;;;;;5045419;28;20185;-80
2023/03/12 07:08:30;;;;;;;5.37;3.50;;;;;;;;;;5044152;28;20202;-80
2023/03/12 07:10:57;;;;;;;5.93;3.80;;;;;;;;;;5065945;28;20182;-74
2023/03/12 07:13:23;;;;;;;4.97;3.80;;;;;;;;;;5049869;28;21349;-77
2023/03/12 07:15:49;;;;;;;7.53;4.13;;;;;;;;;;5040653;28;20190;-76
2023/03/12 07:18:16;;;;;;;6.87;4.50;;;;;;;;;;5044439;28;20185;-78
2023/03/12 07:20:43;;;;;;;9.43;5.63;;;;;;;;;;5048602;28;20189;-76
2023/03/12 07:23:09;;;;;;;6.97;4.90;;;;;;;;;;5045895;28;20213;-73
2023/03/12 07:25:36;;;;;;;7.97;5.70;;;;;;;;;;5059474;28;20193;-75
2023/03/12 07:28:03;;;;;;;10.50;5.67;;;;;;;;;;5043968;28;20182;-75
2023/03/12 07:30:32;;;;;;;6.80;5.63;;;;;;;;;;5044705;28;20217;-75
2023/03/12 07:33:02;;;;;;;7.07;5.77;;;;;;;;;;5059310;28;20205;-74
2023/03/12 07:35:28;;;;;;;8.70;5.93;;;;;;;;;;5045174;28;20540;-74
2023/03/12 07:37:54;;;;;;;8.97;6.03;;;;;;;;;;5048621;28;20268;-75
2023/03/12 07:40:20;;;;;;;11.40;6.70;;;;;;;;;;5049573;28;20225;-76
2023/03/12 07:42:47;;;;;;;8.83;6.73;;;;;;;;;;5043576;28;20213;-75
2023/03/12 07:45:13;;;;;;;10.07;7.13;;;;;;;;;;5043249;28;20182;-75
2023/03/12 07:47:39;;;;;;;10.40;6.40;;;;;;;;;;5049269;28;20268;-75
2023/03/12 07:50:05;;;;;;;10.63;6.73;;;;;;;;;;5047063;28;20291;-73
2023/03/12 07:52:31;;;;;;;10.00;6.47;;;;;;;;;;5046047;28;20669;-76
2023/03/12 07:54:57;;;;;;;10.07;6.53;;;;;;;;;;5046012;28;20381;-75
2023/03/12 07:57:24;;;;;;;13.07;7.60;;;;;;;;;;5048535;28;20696;-79
2023/03/12 07:59:50;;;;;;;10.73;7.23;;;;;;;;;;5047185;28;20698;-79
2023/03/12 08:02:17;;;;;;;8.63;6.60;;;;;;;;;;5047581;28;20209;-77
2023/03/12 08:04:43;;;;;;;9.47;6.57;;;;;;;;;;5045896;28;20638;-74
2023/03/12 08:07:09;;;;;;;10.03;7.13;;;;;;;;;;5045820;28;20174;-77
2023/03/12 08:09:37;;;;;;;10.43;7.10;;;;;;;;;;5046235;28;20220;-78
2023/03/12 08:12:03;;;;;;;14.83;8.33;;;;;;;;;;5041638;28;20201;-76
2023/03/12 08:14:30;;;;;;;11.63;8.30;;;;;;;;;;5042880;28;20201;-76
2023/03/12 08:16:57;;;;;;;11.03;7.67;;;;;;;;;;5041034;28;20229;-77
2023/03/12 08:19:24;;;;;;;12.47;8.43;;;;;;;;;;5042907;28;20194;-76
2023/03/12 08:21:56;;;;;;;8.60;7.43;;;;;;;;;;5045581;28;20267;-77
2023/03/12 08:24:23;;;;;;;11.63;8.07;;;;;;;;;;5048058;28;20198;-76
2023/03/12 08:26:50;;;;;;;9.83;7.87;;;;;;;;;;5047454;28;20548;-77
2023/03/12 08:29:16;;;;;;;15.30;8.37;;;;;;;;;;5046092;28;20186;-76
2023/03/12 08:31:43;;;;;;;12.90;8.63;;;;;;;;;;5050102;28;20170;-77
2023/03/12 08:34:09;;;;;;;12.87;10.10;;;;;;;;;;5047084;28;20216;-77
2023/03/12 08:36:36;;;;;;;14.17;9.07;;;;;;;;;;5049081;28;20214;-75
2023/03/12 08:39:03;;;;;;;14.23;9.67;;;;;;;;;;5043660;28;20186;-76
2023/03/12 08:41:29;;;;;;;15.57;11.50;;;;;;;;;;5045194;28;20216;-77
2023/03/12 08:43:55;;;;;;;12.17;10.03;;;;;;;;;;5027237;28;20229;-76
2023/03/12 08:46:21;;;;;;;10.87;8.43;;;;;;;;;;5043478;28;20265;-75
2023/03/12 08:48:47;;;;;;;10.53;7.93;;;;;;;;;;5042874;28;20672;-77
2023/03/12 08:51:13;;;;;;;12.47;8.00;;;;;;;;;;5044881;28;20197;-76
2023/03/12 08:53:40;;;;;;;18.33;12.10;;;;;;;;;;5044130;28;20578;-76
2023/03/12 08:56:07;;;;;;;13.40;8.93;;;;;;;;;;5042691;28;20182;-77
2023/03/12 08:58:33;;;;;;;9.37;8.07;;;;;;;;;;5042962;28;20182;-77
2023/03/12 09:00:59;;;;;;;12.47;9.07;;;;;;;;;;5044039;28;20202;-76
2023/03/12 09:03:26;;;;;;;12.33;9.43;;;;;;;;;;5041737;28;20228;-76
2023/03/12 09:06:02;;;;;;;14.83;8.67;;;;;;;;;;5039974;28;20186;-76
2023/03/12 09:08:28;;;;;;;13.47;8.00;;;;;;;;;;5040235;28;20210;-76
2023/03/12 09:10:54;;;;;;;19.33;13.70;;;;;;;;;;5040268;28;20239;-75
2023/03/12 09:13:20;;;;;;;17.40;12.07;;;;;;;;;;5040434;28;20923;-77
2023/03/12 09:15:46;;;;;;;13.73;7.97;;;;;;;;;;5039026;28;20489;-76
2023/03/12 09:18:12;;;;;;;11.83;8.10;;;;;;;;;;5041071;28;20185;-77
2023/03/12 09:20:38;;;;;;;12.43;8.57;;;;;;;;;;5031292;28;20190;-76
2023/03/12 09:23:04;;;;;;;19.50;12.67;;;;;;;;;;5041128;28;20213;-76
2023/03/12 09:25:30;;;;;;;15.00;9.40;;;;;;;;;;5044930;28;20223;-76
2023/03/12 09:27:57;;;;;;;14.23;8.77;;;;;;;;;;5045268;28;20641;-77
2023/03/12 09:30:25;;;;;;;11.40;7.90;;;;;;;;;;5011391;28;20181;-76
2023/03/12 09:32:51;;;;;;;11.37;7.53;;;;;;;;;;5035432;28;20233;-75
2023/03/12 09:35:17;;;;;;;12.70;8.73;;;;;;;;;;5042542;28;20190;-76
2023/03/12 09:37:47;;;;;;;15.33;11.47;;;;;;;;;;5027037;28;20210;-76
2023/03/12 09:40:16;;;;;;;10.53;9.00;;;;;;;;;;5045598;28;20182;-76
2023/03/12 09:42:47;;;;;;;16.80;12.40;;;;;;;;;;5035623;28;20228;-76
2023/03/12 09:45:15;;;;;;;11.90;9.43;;;;;;;;;;5026561;28;20869;-75
2023/03/12 09:47:57;;;;;;;14.80;9.77;;;;;;;;;;5043969;28;20239;-76
2023/03/12 09:50:32;;;;;;;13.10;8.70;;;;;;;;;;5044108;28;20194;-75
2023/03/12 09:53:09;;;;;;;14.53;9.43;;;;;;;;;;5043058;28;20250;-77
2023/03/12 09:55:37;;;;;;;17.43;10.47;;;;;;;;;;5045389;28;20560;-77
2023/03/12 09:58:03;;;;;;;12.47;8.23;;;;;;;;;;5042093;28;20193;-76
2023/03/12 10:00:31;;;;;;;14.07;8.67;;;;;;;;;;5040047;28;20196;-76
2023/03/12 10:02:57;;;;;;;11.90;8.43;;;;;;;;;;5038008;28;20209;-77
2023/03/12 10:05:26;;;;;;;12.43;7.93;;;;;;;;;;5039698;28;20183;-75
2023/03/12 10:07:56;;;;;;;10.77;8.17;;;;;;;;;;5047626;28;20186;-76
2023/03/12 10:10:39;;;;;;;9.90;8.17;;;;;;;;;;5043136;28;20174;-76
2023/03/12 10:13:32;;;;;;;12.57;9.57;;;;;;;;;;5036857;28;20681;-76
2023/03/12 10:16:17;;;;;;;12.40;9.70;;;;;;;;;;5038881;28;20194;-77
2023/03/12 10:18:46;;;;;;;14.80;9.60;;;;;;;;;;5058462;28;20200;-76
2023/03/12 10:21:19;;;;;;;14.20;10.20;;;;;;;;;;5015926;28;20198;-76
2023/03/12 10:23:54;;;;;;;13.60;9.70;;;;;;;;;;5042292;28;20300;-76
2023/03/12 10:26:20;;;;;;;13.43;10.23;;;;;;;;;;5042423;28;20267;-77
2023/03/12 10:28:51;;;;;;;17.83;10.73;;;;;;;;;;5041726;28;20272;-75
2023/03/12 10:31:21;;;;;;;14.00;10.60;;;;;;;;;;5041813;28;20214;-76
2023/03/12 10:33:57;;;;;;;15.90;10.50;;;;;;;;;;5038990;28;20220;-76
2023/03/12 10:36:38;;;;;;;15.03;11.83;;;;;;;;;;5040594;28;20243;-77
2023/03/12 10:39:04;;;;;;;16.13;11.60;;;;;;;;;;5043088;28;20192;-76
2023/03/12 10:41:31;;;;;;;13.67;10.60;;;;;;;;;;5042267;28;20205;-76
2023/03/12 10:44:01;;;;;;;14.80;10.90;;;;;;;;;;5044124;28;20193;-77
2023/03/12 10:46:36;;;;;;;17.93;10.70;;;;;;;;;;5042135;28;20201;-75
2023/03/12 10:49:21;;;;;;;15.80;10.50;;;;;;;;;;5041716;28;20326;-75
2023/03/12 10:51:59;;;;;;;12.90;10.60;;;;;;;;;;5040756;28;20215;-77
2023/03/12 10:54:30;;;;;;;13.47;10.53;;;;;;;;;;5042496;28;20267;-76
2023/03/12 10:56:57;;;;;;;17.40;12.47;;;;;;;;;;5043664;28;20190;-77
2023/03/12 10:59:26;;;;;;;15.63;11.43;;;;;;;;;;5039807;28;20239;-76
2023/03/12 11:01:53;;;;;;;15.53;11.20;;;;;;;;;;5043943;28;20206;-76
2023/03/12 11:04:22;;;;;;;14.40;10.80;;;;;;;;;;5042888;28;20376;-76
2023/03/12 11:07:04;;;;;;;13.50;10.67;;;;;;;;;;5044232;28;20185;-75
2023/03/12 11:09:30;;;;;;;16.87;11.67;;;;;;;;;;5039025;28;20186;-75
2023/03/12 11:11:56;;;;;;;13.10;10.50;;;;;;;;;;5043068;28;20582;-76
2023/03/12 11:14:24;;;;;;;12.23;10.20;;;;;;;;;;5041301;28;20205;-77
2023/03/12 11:16:51;;;;;;;17.83;13.03;;;;;;;;;;5047238;28;20186;-76
2023/03/12 11:19:34;;;;;;;33.20;23.77;;;;;;;;;;5041703;28;20190;-76
2023/03/12 11:22:07;;;;;;;21.53;16.73;;;;;;;;;;5043250;28;20213;-76
2023/03/12 11:24:33;;;;;;;15.87;13.47;;;;;;;;;;5047989;28;20673;-76
2023/03/12 11:27:04;;;;;;;17.40;13.33;;;;;;;;;;5047632;28;20666;-76
2023/03/12 11:29:34;;;;;;;14.37;11.70;;;;;;;;;;5050598;28;20178;-75
2023/03/12 11:32:19;;;;;;;19.70;14.10;;;;;;;;;;5043815;28;20193;-76
2023/03/12 11:34:49;;;;;;;17.10;13.63;;;;;;;;;;5047285;28;20586;-74
2023/03/12 11:37:27;;;;;;;13.13;11.10;;;;;;;;;;5037428;28;20193;-76
2023/03/12 11:40:12;;;;;;;14.37;11.07;;;;;;;;;;5046168;28;20190;-75
2023/03/12 11:42:56;;;;;;;14.10;10.83;;;;;;;;;;5041422;28;20288;-75
2023/03/12 11:45:46;;;;;;;27.40;19.27;;;;;;;;;;5046183;28;20186;-75
2023/03/12 11:48:14;;;;;;;30.73;21.73;;;;;;;;;;5035355;28;20186;-75
2023/03/12 11:51:01;;;;;;;24.80;19.47;;;;;;;;;;5046663;28;20196;-76
2023/03/12 11:53:39;;;;;;;33.90;23.50;;;;;;;;;;5045740;28;20204;-76
2023/03/12 11:56:17;;;;;;;28.03;21.27;;;;;;;;;;5048247;28;20205;-75
2023/03/12 11:58:55;;;;;;;19.20;16.20;;;;;;;;;;5048933;28;20205;-76
2023/03/12 12:01:33;;;;;;;17.00;14.67;;;;;;;;;;5052161;28;20265;-75
2023/03/12 12:04:09;;;;;;;18.43;14.97;;;;;;;;;;5050322;28;20223;-75
2023/03/12 12:06:56;;;;;;;15.30;13.13;;;;;;;;;;5048284;28;20185;-75
2023/03/12 12:09:40;;;;;;;17.63;13.40;;;;;;;;;;5049090;28;20209;-74
2023/03/12 12:12:19;;;;;;;16.20;13.53;;;;;;;;;;5049159;28;20267;-76
2023/03/12 12:15:08;;;;;;;13.40;11.73;;;;;;;;;;5049751;28;20648;-75
2023/03/12 12:17:40;;;;;;;24.90;18.83;;;;;;;;;;5048222;28;20190;-76
2023/03/12 12:20:15;;;;;;;21.30;16.43;;;;;;;;;;5046079;28;20360;-79
2023/03/12 12:22:42;;;;;;;15.30;12.23;;;;;;;;;;5048345;28;20302;-76
2023/03/12 12:25:22;;;;;;;12.07;10.77;;;;;;;;;;5050726;28;20193;-75
2023/03/12 12:27:57;;;;;;;13.60;11.77;;;;;;;;;;5050162;28;20192;-76
2023/03/12 12:30:36;;;;;;;15.90;12.27;;;;;;;;;;5052260;28;20193;-75
2023/03/12 12:33:15;;;;;;;12.03;9.73;;;;;;;;;;5040352;28;20214;-76
2023/03/12 12:35:42;;;;;;;13.53;11.07;;;;;;;;;;5054540;28;20197;-75
2023/03/12 12:38:22;;;;;;;10.03;8.93;;;;;;;;;;5048657;28;20177;-75
2023/03/12 12:40:53;;;;;;;11.30;9.27;;;;;;;;;;5049778;28;20817;-75
2023/03/12 12:43:39;;;;;;;10.63;8.73;;;;;;;;;;5046109;28;20240;-74
2023/03/12 12:46:09;;;;;;;9.80;8.57;;;;;;;;;;5048024;28;20201;-74
2023/03/12 12:48:39;;;;;;;10.20;9.07;;;;;;;;;;5046295;28;20247;-74
2023/03/12 12:51:06;;;;;;;11.93;9.50;;;;;;;;;;5057149;28;20206;-73
2023/03/12 12:53:55;;;;;;;9.10;8.20;;;;;;;;;;5049159;28;20205;-74
2023/03/12 12:56:21;;;;;;;9.20;8.30;;;;;;;;;;5048499;28;20182;-74
2023/03/12 12:59:02;;;;;;;9.27;8.30;;;;;;;;;;5047680;28;20636;-74
2023/03/12 13:01:29;;;;;;;8.67;7.73;;;;;;;;;;5045272;28;20210;-76
2023/03/12 13:04:05;;;;;;;9.13;7.83;;;;;;;;;;5049524;28;20248;-74
2023/03/12 13:06:51;;;;;;;10.00;8.70;;;;;;;;;;5046620;28;20174;-74
2023/03/12 13:09:21;;;;;;;9.47;8.30;;;;;;;;;;5041303;28;20657;-74
2023/03/12 13:11:49;;;;;;;9.13;8.10;;;;;;;;;;5029455;28;20197;-74
2023/03/12 13:14:19;;;;;;;13.93;10.73;;;;;;;;;;5043035;28;20216;-75
2023/03/12 13:16:46;;;;;;;13.00;10.90;;;;;;;;;;5049019;28;20178;-76
2023/03/12 13:19:15;;;;;;;9.73;7.70;;;;;;;;;;5047712;28;20186;-73
2023/03/12 13:21:58;;;;;;;10.20;7.80;;;;;;;;;;5044111;28;20217;-75
2023/03/12 13:24:29;;;;;;;8.67;6.80;;;;;;;;;;5026988;28;20329;-73
2023/03/12 13:27:16;;;;;;;11.77;10.03;;;;;;;;;;5048754;28;20196;-78
2023/03/12 13:29:42;;;;;;;12.27;10.33;;;;;;;;;;5036837;28;20305;-77
2023/03/12 13:32:28;;;;;;;9.30;7.67;;;;;;;;;;5046356;28;20332;-77
2023/03/12 13:34:57;;;;;;;14.33;11.83;;;;;;;;;;5047045;28;20213;-76
2023/03/12 13:37:29;;;;;;;8.20;7.33;;;;;;;;;;5041564;28;20180;-75
2023/03/12 13:39:59;;;;;;;7.20;6.30;;;;;;;;;;5042839;28;20618;-74
2023/03/12 13:42:34;;;;;;;6.70;6.10;;;;;;;;;;5046421;28;20209;-75
2023/03/12 13:45:10;;;;;;;6.63;5.97;;;;;;;;;;5049539;28;21070;-75
2023/03/12 13:47:41;;;;;;;7.83;5.87;;;;;;;;;;5044603;28;20186;-75
2023/03/12 13:50:12;;;;;;;8.80;6.00;;;;;;;;;;5045426;28;20178;-75
2023/03/12 13:52:46;;;;;;;7.73;6.40;;;;;;;;;;5043668;28;20194;-74
2023/03/12 13:55:26;;;;;;;6.40;5.70;;;;;;;;;;5046161;28;20196;-74
2023/03/12 13:57:59;;;;;;;7.73;6.27;;;;;;;;;;5047472;28;20281;-75
2023/03/12 14:00:25;;;;;;;7.37;5.43;;;;;;;;;;5047121;28;20235;-75
2023/03/12 14:03:03;;;;;;;9.13;6.17;;;;;;;;;;5043762;28;20313;-75
2023/03/12 14:05:43;;;;;;;9.03;7.33;;;;;;;;;;5046665;28;20201;-76
2023/03/12 14:08:09;;;;;;;9.70;6.90;;;;;;;;;;5045838;28;20181;-77
2023/03/12 14:10:54;;;;;;;8.93;6.97;;;;;;;;;;5046368;28;20182;-76
2023/03/12 14:13:27;;;;;;;11.50;8.97;;;;;;;;;;5043845;28;20259;-78
2023/03/12 14:16:07;;;;;;;10.70;8.57;;;;;;;;;;5044498;28;20194;-79
2023/03/12 14:18:35;;;;;;;7.63;6.13;;;;;;;;;;5044613;28;20204;-78
2023/03/12 14:21:02;;;;;;;9.60;5.97;;;;;;;;;;5048982;28;20557;-78
2023/03/12 14:23:32;;;;;;;9.83;5.30;;;;;;;;;;5027378;28;20217;-78
2023/03/12 14:26:00;;;;;;;10.13;5.43;;;;;;;;;;5045603;28;20185;-78
2023/03/12 14:28:27;;;;;;;8.13;4.27;;;;;;;;;;5042202;28;20235;-78
2023/03/12 14:31:04;;;;;;;10.60;5.43;;;;;;;;;;5045551;28;20548;-85
2023/03/12 14:33:33;;;;;;;8.47;4.57;;;;;;;;;;5027457;28;20209;-84
2023/03/12 14:36:05;;;;;;;7.47;4.27;;;;;;;;;;5046814;28;20186;-84
2023/03/12 14:38:37;;;;;;;8.53;4.97;;;;;;;;;;5036907;28;20189;-85
2023/03/12 14:41:03;;;;;;;9.40;4.27;;;;;;;;;;5025973;28;20182;-84
2023/03/12 14:43:31;;;;;;;8.13;4.47;;;;;;;;;;5024394;28;20269;-84